sensor_id;sensor_type;location;lat;lon;timestamp;pressure;altitude;pressure_sealevel;temperature;humidity
6090;BME280;3073;42.660;23.316;2022-08-21T00:01:35;94000.81;;;19.68;100.00
6090;BME280;3073;42.660;23.316;2022-08-21T00:04:04;93998.38;;;19.63;100.00
6090;BME280;3073;42.660;23.316;2022-08-21T00:06:32;93988.31;;;19.78;100.00
6090;BME280;3073;42.660;23.316;2022-08-21T00:08:59;93996.69;;;19.75;100.00
6090;BME280;3073;42.660;23.316;2022-08-21T00:11:26;94000.06;;;19.67;100.00
6090;BME280;3073;42.660;23.316;2022-08-21T00:13:53;93993.81;;;19.77;100.00
6090;BME280;3073;42.660;23.316;2022-08-21T00:16:20;93985.88;;;19.99;100.00
6090;BME280;3073;42.660;23.316;2022-08-21T00:18:48;93981.63;;;19.86;100.00
6090;BME280;3073;42.660;23.316;2022-08-21T00:21:15;93984.22;;;19.60;100.00
6090;BME280;3073;42.660;23.316;2022-08-21T00:23:43;93977.38;;;19.73;100.00
6090;BME280;3073;42.660;23.316;2022-08-21T00:26:10;93971.91;;;19.74;100.00
6090;BME280;3073;42.660;23.316;2022-08-21T00:28:37;93971.41;;;19.89;100.00
6090;BME280;3073;42.660;23.316;2022-08-21T00:31:04;93971.41;;;19.89;100.00
6090;BME280;3073;42.660;23.316;2022-08-21T00:33:32;93973.38;;;19.92;100.00
6090;BME280;3073;42.660;23.316;2022-08-21T00:36:00;93964.56;;;19.85;100.00
6090;BME280;3073;42.660;23.316;2022-08-21T00:38:27;93971.41;;;19.89;100.00
6090;BME280;3073;42.660;23.316;2022-08-21T00:40:57;93978.13;;;19.82;100.00
6090;BME280;3073;42.660;23.316;2022-08-21T00:43:27;93977.22;;;19.61;100.00
6090;BME280;3073;42.660;23.316;2022-08-21T00:45:56;93976.41;;;19.34;100.00
6090;BME280;3073;42.660;23.316;2022-08-21T00:48:24;93981.59;;;19.34;100.00
6090;BME280;3073;42.660;23.316;2022-08-21T00:50:54;93983.44;;;19.42;100.00
6090;BME280;3073;42.660;23.316;2022-08-21T00:53:23;93984.22;;;19.94;100.00
6090;BME280;3073;42.660;23.316;2022-08-21T00:55:51;93976.09;;;20.30;100.00
6090;BME280;3073;42.660;23.316;2022-08-21T00:58:20;93973.66;;;20.34;100.00
6090;BME280;3073;42.660;23.316;2022-08-21T01:00:49;93976.13;;;19.96;100.00
6090;BME280;3073;42.660;23.316;2022-08-21T01:03:19;93974.47;;;19.91;100.00
6090;BME280;3073;42.660;23.316;2022-08-21T01:05:47;93968.69;;;19.69;100.00
6090;BME280;3073;42.660;23.316;2022-08-21T01:08:15;93971.13;;;19.48;100.00
6090;BME280;3073;42.660;23.316;2022-08-21T01:10:43;93971.13;;;19.48;100.00
6090;BME280;3073;42.660;23.316;2022-08-21T01:13:12;93962.75;;;19.42;100.00
6090;BME280;3073;42.660;23.316;2022-08-21T01:15:46;93958.94;;;19.48;100.00
6090;BME280;3073;42.660;23.316;2022-08-21T01:18:15;93952.97;;;19.31;100.00
6090;BME280;3073;42.660;23.316;2022-08-21T01:23:17;93960.19;;;19.51;100.00
6090;BME280;3073;42.660;23.316;2022-08-21T01:25:44;93948.56;;;19.40;100.00
6090;BME280;3073;42.660;23.316;2022-08-21T01:28:13;93953.31;;;19.55;100.00
6090;BME280;3073;42.660;23.316;2022-08-21T01:30:42;93945.63;;;19.16;100.00
6090;BME280;3073;42.660;23.316;2022-08-21T01:33:09;93949.03;;;19.33;100.00
6090;BME280;3073;42.660;23.316;2022-08-21T01:35:37;93958.34;;;19.43;100.00
6090;BME280;3073;42.660;23.316;2022-08-21T01:38:04;93960.50;;;19.01;100.00
6090;BME280;3073;42.660;23.316;2022-08-21T01:40:34;93960.94;;;18.78;100.00
6090;BME280;3073;42.660;23.316;2022-08-21T01:43:02;93954.41;;;18.80;100.00
6090;BME280;3073;42.660;23.316;2022-08-21T01:45:29;93961.75;;;19.04;100.00
6090;BME280;3073;42.660;23.316;2022-08-21T01:47:57;93960.38;;;19.07;100.00
6090;BME280;3073;42.660;23.316;2022-08-21T01:50:23;93962.69;;;19.25;100.00
6090;BME280;3073;42.660;23.316;2022-08-21T01:52:51;93961.91;;;19.08;100.00
6090;BME280;3073;42.660;23.316;2022-08-21T01:55:19;93955.22;;;19.07;100.00
6090;BME280;3073;42.660;23.316;2022-08-21T01:57:48;93960.22;;;19.12;100.00
6090;BME280;3073;42.660;23.316;2022-08-21T02:00:19;93956.19;;;19.28;100.00
6090;BME280;3073;42.660;23.316;2022-08-21T02:02:48;93961.19;;;19.24;100.00
6090;BME280;3073;42.660;23.316;2022-08-21T02:05:15;93970.84;;;19.01;100.00
6090;BME280;3073;42.660;23.316;2022-08-21T02:07:45;93967.41;;;19.23;100.00
6090;BME280;3073;42.660;23.316;2022-08-21T02:10:14;93977.44;;;19.08;100.00
6090;BME280;3073;42.660;23.316;2022-08-21T02:12:41;93978.53;;;19.32;100.00
6090;BME280;3073;42.660;23.316;2022-08-21T02:15:09;93972.31;;;19.42;100.00
6090;BME280;3073;42.660;23.316;2022-08-21T02:17:38;93972.19;;;19.56;100.00
6090;BME280;3073;42.660;23.316;2022-08-21T02:20:06;93979.97;;;19.64;100.00
6090;BME280;3073;42.660;23.316;2022-08-21T02:22:33;93979.50;;;19.62;100.00
6090;BME280;3073;42.660;23.316;2022-08-21T02:25:00;93980.84;;;19.68;100.00
6090;BME280;3073;42.660;23.316;2022-08-21T02:27:27;93978.72;;;19.79;100.00
6090;BME280;3073;42.660;23.316;2022-08-21T02:29:56;93982.25;;;19.74;100.00
6090;BME280;3073;42.660;23.316;2022-08-21T02:32:25;93990.16;;;19.78;100.00
6090;BME280;3073;42.660;23.316;2022-08-21T02:34:52;93993.66;;;19.73;100.00
6090;BME280;3073;42.660;23.316;2022-08-21T02:37:19;93988.03;;;19.80;100.00
6090;BME280;3073;42.660;23.316;2022-08-21T02:39:46;93995.03;;;19.79;100.00
6090;BME280;3073;42.660;23.316;2022-08-21T02:42:13;93984.53;;;19.84;100.00
6090;BME280;3073;42.660;23.316;2022-08-21T02:44:40;93983.63;;;19.80;100.00
6090;BME280;3073;42.660;23.316;2022-08-21T02:47:07;93989.38;;;19.69;100.00
6090;BME280;3073;42.660;23.316;2022-08-21T02:49:35;93984.22;;;19.77;100.00
6090;BME280;3073;42.660;23.316;2022-08-21T02:52:02;93986.66;;;19.82;100.00
6090;BME280;3073;42.660;23.316;2022-08-21T02:54:31;93986.19;;;19.89;100.00
6090;BME280;3073;42.660;23.316;2022-08-21T02:56:58;93977.81;;;19.92;100.00
6090;BME280;3073;42.660;23.316;2022-08-21T02:59:24;93980.09;;;19.85;100.00
6090;BME280;3073;42.660;23.316;2022-08-21T03:01:52;93987.88;;;19.93;100.00
6090;BME280;3073;42.660;23.316;2022-08-21T03:04:19;93984.63;;;20.05;100.00
6090;BME280;3073;42.660;23.316;2022-08-21T03:06:47;93997.16;;;19.77;100.00
6090;BME280;3073;42.660;23.316;2022-08-21T03:09:14;93991.81;;;19.82;100.00
6090;BME280;3073;42.660;23.316;2022-08-21T03:11:41;93985.91;;;19.73;100.00
6090;BME280;3073;42.660;23.316;2022-08-21T03:14:08;93993.66;;;19.73;100.00
6090;BME280;3073;42.660;23.316;2022-08-21T03:16:34;93982.56;;;19.81;100.00
6090;BME280;3073;42.660;23.316;2022-08-21T03:19:01;93986.94;;;19.89;100.00
6090;BME280;3073;42.660;23.316;2022-08-21T03:21:28;93983.91;;;19.87;100.00
6090;BME280;3073;42.660;23.316;2022-08-21T03:23:57;93985.44;;;19.54;100.00
6090;BME280;3073;42.660;23.316;2022-08-21T03:26:23;93981.19;;;19.84;100.00
6090;BME280;3073;42.660;23.316;2022-08-21T03:28:50;93982.53;;;19.90;100.00
6090;BME280;3073;42.660;23.316;2022-08-21T03:31:17;93982.53;;;19.90;100.00
6090;BME280;3073;42.660;23.316;2022-08-21T03:33:44;93980.38;;;19.92;100.00
6090;BME280;3073;42.660;23.316;2022-08-21T03:36:11;93982.53;;;19.90;100.00
6090;BME280;3073;42.660;23.316;2022-08-21T03:38:38;93972.94;;;19.90;100.00
6090;BME280;3073;42.660;23.316;2022-08-21T03:41:07;93972.19;;;19.90;100.00
6090;BME280;3073;42.660;23.316;2022-08-21T03:43:35;93966.09;;;19.94;100.00
6090;BME280;3073;42.660;23.316;2022-08-21T03:46:05;93967.59;;;19.95;100.00
6090;BME280;3073;42.660;23.316;2022-08-21T03:48:32;93964.72;;;19.88;100.00
6090;BME280;3073;42.660;23.316;2022-08-21T03:51:00;93970.66;;;19.89;100.00
6090;BME280;3073;42.660;23.316;2022-08-21T03:53:27;93977.22;;;19.78;100.00
6090;BME280;3073;42.660;23.316;2022-08-21T03:55:54;93985.44;;;19.80;100.00
6090;BME280;3073;42.660;23.316;2022-08-21T03:58:24;93994.41;;;19.82;100.00
6090;BME280;3073;42.660;23.316;2022-08-21T04:00:55;93993.34;;;19.83;100.00
6090;BME280;3073;42.660;23.316;2022-08-21T04:03:22;93996.41;;;19.85;100.00
6090;BME280;3073;42.660;23.316;2022-08-21T04:05:49;93993.66;;;19.90;100.00
6090;BME280;3073;42.660;23.316;2022-08-21T04:08:16;93999.44;;;19.87;100.00
6090;BME280;3073;42.660;23.316;2022-08-21T04:10:45;94000.03;;;19.50;100.00
6090;BME280;3073;42.660;23.316;2022-08-21T04:13:12;93995.94;;;19.49;100.00
6090;BME280;3073;42.660;23.316;2022-08-21T04:15:41;94002.72;;;19.28;100.00
6090;BME280;3073;42.660;23.316;2022-08-21T04:18:08;94003.63;;;19.15;100.00
6090;BME280;3073;42.660;23.316;2022-08-21T04:20:35;93995.06;;;19.06;100.00
6090;BME280;3073;42.660;23.316;2022-08-21T04:23:02;93992.03;;;19.12;100.00
6090;BME280;3073;42.660;23.316;2022-08-21T04:25:30;93990.25;;;19.21;100.00
6090;BME280;3073;42.660;23.316;2022-08-21T04:27:57;93996.13;;;19.05;100.00
6090;BME280;3073;42.660;23.316;2022-08-21T04:30:24;93988.50;;;18.99;100.00
6090;BME280;3073;42.660;23.316;2022-08-21T04:32:52;93990.19;;;19.04;100.00
6090;BME280;3073;42.660;23.316;2022-08-21T04:35:21;93995.41;;;19.30;100.00
6090;BME280;3073;42.660;23.316;2022-08-21T04:37:48;94001.53;;;19.34;100.00
6090;BME280;3073;42.660;23.316;2022-08-21T04:40:17;93991.22;;;19.42;100.00
6090;BME280;3073;42.660;23.316;2022-08-21T04:42:47;93991.00;;;19.39;100.00
6090;BME280;3073;42.660;23.316;2022-08-21T04:45:20;93987.22;;;19.28;100.00
6090;BME280;3073;42.660;23.316;2022-08-21T04:47:48;93986.28;;;19.32;100.00
6090;BME280;3073;42.660;23.316;2022-08-21T04:50:17;93986.22;;;19.55;100.00
6090;BME280;3073;42.660;23.316;2022-08-21T04:52:44;93992.13;;;19.72;100.00
6090;BME280;3073;42.660;23.316;2022-08-21T04:55:12;93991.22;;;19.77;100.00
6090;BME280;3073;42.660;23.316;2022-08-21T04:57:40;93981.00;;;19.97;100.00
6090;BME280;3073;42.660;23.316;2022-08-21T05:00:08;93987.09;;;20.01;100.00
6090;BME280;3073;42.660;23.316;2022-08-21T05:02:36;93986.28;;;20.18;100.00
6090;BME280;3073;42.660;23.316;2022-08-21T05:05:04;93987.69;;;20.24;100.00
6090;BME280;3073;42.660;23.316;2022-08-21T05:07:33;93993.34;;;20.18;100.00
6090;BME280;3073;42.660;23.316;2022-08-21T05:10:00;93996.50;;;20.23;100.00
6090;BME280;3073;42.660;23.316;2022-08-21T05:12:28;94005.50;;;20.26;100.00
6090;BME280;3073;42.660;23.316;2022-08-21T05:14:54;93999.53;;;20.42;100.00
6090;BME280;3073;42.660;23.316;2022-08-21T05:17:21;93992.53;;;20.43;100.00
6090;BME280;3073;42.660;23.316;2022-08-21T05:19:48;93993.88;;;20.58;100.00
6090;BME280;3073;42.660;23.316;2022-08-21T05:22:19;93993.94;;;20.78;100.00
6090;BME280;3073;42.660;23.316;2022-08-21T05:24:48;94001.25;;;20.76;100.00
6090;BME280;3073;42.660;23.316;2022-08-21T05:27:14;94003.66;;;20.90;100.00
6090;BME280;3073;42.660;23.316;2022-08-21T05:29:42;94007.44;;;21.01;100.00
6090;BME280;3073;42.660;23.316;2022-08-21T05:32:10;94001.16;;;21.11;100.00
6090;BME280;3073;42.660;23.316;2022-08-21T05:34:37;93993.66;;;21.38;100.00
6090;BME280;3073;42.660;23.316;2022-08-21T05:37:04;93992.59;;;22.01;100.00
6090;BME280;3073;42.660;23.316;2022-08-21T05:39:31;93998.06;;;22.53;100.00
6090;BME280;3073;42.660;23.316;2022-08-21T05:41:59;94008.41;;;22.86;100.00
6090;BME280;3073;42.660;23.316;2022-08-21T05:44:26;93987.91;;;23.09;100.00
6090;BME280;3073;42.660;23.316;2022-08-21T05:46:53;93996.94;;;22.99;100.00
6090;BME280;3073;42.660;23.316;2022-08-21T05:49:20;94001.38;;;23.47;100.00
6090;BME280;3073;42.660;23.316;2022-08-21T05:51:47;93999.69;;;23.67;100.00
6090;BME280;3073;42.660;23.316;2022-08-21T05:54:14;93999.19;;;23.89;100.00
6090;BME280;3073;42.660;23.316;2022-08-21T05:56:41;93995.63;;;23.54;100.00
6090;BME280;3073;42.660;23.316;2022-08-21T05:59:11;93985.88;;;23.02;100.00
6090;BME280;3073;42.660;23.316;2022-08-21T06:01:39;94002.47;;;22.98;100.00
6090;BME280;3073;42.660;23.316;2022-08-21T06:04:06;93998.03;;;22.08;100.00
6090;BME280;3073;42.660;23.316;2022-08-21T06:06:34;93996.44;;;21.33;100.00
6090;BME280;3073;42.660;23.316;2022-08-21T06:09:00;93981.97;;;20.94;100.00
6090;BME280;3073;42.660;23.316;2022-08-21T06:11:28;93985.31;;;21.53;100.00
6090;BME280;3073;42.660;23.316;2022-08-21T06:13:55;93989.31;;;21.22;100.00
6090;BME280;3073;42.660;23.316;2022-08-21T06:16:23;93997.03;;;21.10;100.00
6090;BME280;3073;42.660;23.316;2022-08-21T06:18:50;93987.78;;;20.91;100.00
6090;BME280;3073;42.660;23.316;2022-08-21T06:21:17;93989.66;;;21.20;100.00
6090;BME280;3073;42.660;23.316;2022-08-21T06:23:45;93988.63;;;21.13;100.00
6090;BME280;3073;42.660;23.316;2022-08-21T06:26:13;93980.41;;;21.52;100.00
6090;BME280;3073;42.660;23.316;2022-08-21T06:28:41;93990.63;;;21.57;100.00
6090;BME280;3073;42.660;23.316;2022-08-21T06:31:14;93988.72;;;21.87;100.00
6090;BME280;3073;42.660;23.316;2022-08-21T06:33:42;93992.53;;;22.10;100.00
6090;BME280;3073;42.660;23.316;2022-08-21T06:36:09;93988.81;;;21.78;100.00
6090;BME280;3073;42.660;23.316;2022-08-21T06:38:37;93994.44;;;22.01;100.00
6090;BME280;3073;42.660;23.316;2022-08-21T06:41:04;93994.84;;;22.24;100.00
6090;BME280;3073;42.660;23.316;2022-08-21T06:43:31;94002.00;;;22.72;100.00
6090;BME280;3073;42.660;23.316;2022-08-21T06:45:57;94004.63;;;22.39;100.00
6090;BME280;3073;42.660;23.316;2022-08-21T06:48:24;93993.34;;;21.81;100.00
6090;BME280;3073;42.660;23.316;2022-08-21T06:50:53;93995.50;;;21.58;100.00
6090;BME280;3073;42.660;23.316;2022-08-21T06:53:21;94000.56;;;21.55;100.00
6090;BME280;3073;42.660;23.316;2022-08-21T06:55:48;94004.69;;;21.56;100.00
6090;BME280;3073;42.660;23.316;2022-08-21T06:58:15;94001.03;;;21.57;100.00
6090;BME280;3073;42.660;23.316;2022-08-21T07:00:45;94006.47;;;21.14;100.00
6090;BME280;3073;42.660;23.316;2022-08-21T07:03:20;94017.03;;;21.59;100.00
6090;BME280;3073;42.660;23.316;2022-08-21T07:05:47;94014.38;;;21.47;100.00
6090;BME280;3073;42.660;23.316;2022-08-21T07:08:16;94007.63;;;21.96;100.00
6090;BME280;3073;42.660;23.316;2022-08-21T07:10:43;94004.81;;;22.67;100.00
6090;BME280;3073;42.660;23.316;2022-08-21T07:13:10;94008.19;;;22.79;100.00
6090;BME280;3073;42.660;23.316;2022-08-21T07:15:37;94010.56;;;22.72;100.00
6090;BME280;3073;42.660;23.316;2022-08-21T07:18:04;94009.75;;;23.04;100.00
6090;BME280;3073;42.660;23.316;2022-08-21T07:20:31;94015.78;;;23.33;100.00
6090;BME280;3073;42.660;23.316;2022-08-21T07:23:00;94014.72;;;23.22;100.00
6090;BME280;3073;42.660;23.316;2022-08-21T07:25:29;94008.63;;;23.05;100.00
6090;BME280;3073;42.660;23.316;2022-08-21T07:27:57;94007.97;;;23.57;100.00
6090;BME280;3073;42.660;23.316;2022-08-21T07:30:24;94007.63;;;23.58;100.00
6090;BME280;3073;42.660;23.316;2022-08-21T07:32:51;94011.56;;;23.65;100.00
6090;BME280;3073;42.660;23.316;2022-08-21T07:35:19;93997.72;;;23.76;100.00
6090;BME280;3073;42.660;23.316;2022-08-21T07:37:46;94000.22;;;24.13;100.00
6090;BME280;3073;42.660;23.316;2022-08-21T07:40:14;93997.59;;;24.56;100.00
6090;BME280;3073;42.660;23.316;2022-08-21T07:42:44;93992.72;;;25.33;100.00
6090;BME280;3073;42.660;23.316;2022-08-21T07:45:12;93994.53;;;25.48;100.00
6090;BME280;3073;42.660;23.316;2022-08-21T07:47:39;93993.56;;;24.43;100.00
6090;BME280;3073;42.660;23.316;2022-08-21T07:50:07;93993.25;;;24.60;100.00
6090;BME280;3073;42.660;23.316;2022-08-21T07:52:34;93993.09;;;25.00;100.00
6090;BME280;3073;42.660;23.316;2022-08-21T07:55:01;93986.28;;;24.95;100.00
6090;BME280;3073;42.660;23.316;2022-08-21T07:57:28;93994.06;;;25.27;100.00
6090;BME280;3073;42.660;23.316;2022-08-21T07:59:56;93993.22;;;25.73;100.00
6090;BME280;3073;42.660;23.316;2022-08-21T08:02:24;93988.44;;;25.09;100.00
6090;BME280;3073;42.660;23.316;2022-08-21T08:04:51;93991.88;;;24.35;100.00
6090;BME280;3073;42.660;23.316;2022-08-21T08:07:18;93985.09;;;24.77;100.00
6090;BME280;3073;42.660;23.316;2022-08-21T08:09:45;93991.16;;;25.63;100.00
6090;BME280;3073;42.660;23.316;2022-08-21T08:12:12;93998.44;;;25.73;100.00
6090;BME280;3073;42.660;23.316;2022-08-21T08:14:39;93995.25;;;26.18;100.00
6090;BME280;3073;42.660;23.316;2022-08-21T08:17:07;93985.28;;;25.50;100.00
6090;BME280;3073;42.660;23.316;2022-08-21T08:19:34;93983.31;;;24.81;100.00
6090;BME280;3073;42.660;23.316;2022-08-21T08:22:01;93990.34;;;24.06;100.00
6090;BME280;3073;42.660;23.316;2022-08-21T08:24:28;93990.72;;;23.92;100.00
6090;BME280;3073;42.660;23.316;2022-08-21T08:26:55;93995.25;;;23.68;100.00
6090;BME280;3073;42.660;23.316;2022-08-21T08:29:23;93983.38;;;24.38;100.00
6090;BME280;3073;42.660;23.316;2022-08-21T08:31:50;93988.69;;;24.57;100.00
6090;BME280;3073;42.660;23.316;2022-08-21T08:34:18;93997.34;;;26.12;100.00
6090;BME280;3073;42.660;23.316;2022-08-21T08:36:48;93996.00;;;27.06;100.00
6090;BME280;3073;42.660;23.316;2022-08-21T08:39:14;94005.78;;;26.86;100.00
6090;BME280;3073;42.660;23.316;2022-08-21T08:41:44;93998.88;;;25.75;100.00
6090;BME280;3073;42.660;23.316;2022-08-21T08:44:13;93992.81;;;25.90;100.00
6090;BME280;3073;42.660;23.316;2022-08-21T08:46:41;93996.03;;;25.49;100.00
6090;BME280;3073;42.660;23.316;2022-08-21T08:49:14;93997.91;;;25.48;100.00
6090;BME280;3073;42.660;23.316;2022-08-21T08:51:46;93991.34;;;25.39;100.00
6090;BME280;3073;42.660;23.316;2022-08-21T08:54:17;93994.19;;;26.03;100.00
6090;BME280;3073;42.660;23.316;2022-08-21T08:56:46;93991.03;;;25.75;100.00
6090;BME280;3073;42.660;23.316;2022-08-21T08:59:18;93983.81;;;24.55;100.00
6090;BME280;3073;42.660;23.316;2022-08-21T09:01:54;93984.69;;;24.91;100.00
6090;BME280;3073;42.660;23.316;2022-08-21T09:04:25;93978.06;;;25.63;100.00
6090;BME280;3073;42.660;23.316;2022-08-21T09:07:05;93979.94;;;27.34;100.00
6090;BME280;3073;42.660;23.316;2022-08-21T09:09:48;93971.22;;;28.16;100.00
6090;BME280;3073;42.660;23.316;2022-08-21T09:12:28;93972.72;;;27.53;100.00
6090;BME280;3073;42.660;23.316;2022-08-21T09:15:04;93970.41;;;26.73;100.00
6090;BME280;3073;42.660;23.316;2022-08-21T09:17:40;93959.09;;;26.88;100.00
6090;BME280;3073;42.660;23.316;2022-08-21T09:20:20;93966.03;;;26.58;100.00
6090;BME280;3073;42.660;23.316;2022-08-21T09:23:00;93960.19;;;26.87;100.00
6090;BME280;3073;42.660;23.316;2022-08-21T09:25:34;93955.91;;;26.79;100.00
6090;BME280;3073;42.660;23.316;2022-08-21T09:28:09;93954.38;;;26.52;100.00
6090;BME280;3073;42.660;23.316;2022-08-21T09:30:39;93955.97;;;26.83;100.00
6090;BME280;3073;42.660;23.316;2022-08-21T09:33:07;93960.00;;;27.52;100.00
6090;BME280;3073;42.660;23.316;2022-08-21T09:35:36;93957.56;;;27.70;100.00
6090;BME280;3073;42.660;23.316;2022-08-21T09:38:06;93952.75;;;27.72;100.00
6090;BME280;3073;42.660;23.316;2022-08-21T09:40:37;93955.59;;;27.07;100.00
6090;BME280;3073;42.660;23.316;2022-08-21T09:43:06;93948.34;;;27.23;100.00
6090;BME280;3073;42.660;23.316;2022-08-21T09:45:34;93951.38;;;27.25;100.00
6090;BME280;3073;42.660;23.316;2022-08-21T09:48:12;93949.50;;;26.77;100.00
6090;BME280;3073;42.660;23.316;2022-08-21T09:50:40;93944.69;;;26.33;100.00
6090;BME280;3073;42.660;23.316;2022-08-21T09:53:16;93952.06;;;26.28;100.00
6090;BME280;3073;42.660;23.316;2022-08-21T09:55:48;93945.97;;;26.43;100.00
6090;BME280;3073;42.660;23.316;2022-08-21T09:58:35;93943.81;;;26.26;100.00
6090;BME280;3073;42.660;23.316;2022-08-21T10:01:04;93942.56;;;26.20;100.00
6090;BME280;3073;42.660;23.316;2022-08-21T10:03:32;93939.41;;;25.72;100.00
6090;BME280;3073;42.660;23.316;2022-08-21T10:06:02;93933.66;;;25.63;100.00
6090;BME280;3073;42.660;23.316;2022-08-21T10:08:33;93935.16;;;25.64;100.00
6090;BME280;3073;42.660;23.316;2022-08-21T10:11:04;93930.59;;;25.99;100.00
6090;BME280;3073;42.660;23.316;2022-08-21T10:13:52;93937.06;;;26.25;100.00
6090;BME280;3073;42.660;23.316;2022-08-21T10:16:40;93929.88;;;26.41;100.00
6090;BME280;3073;42.660;23.316;2022-08-21T10:19:16;93922.69;;;27.09;100.00
6090;BME280;3073;42.660;23.316;2022-08-21T10:21:58;93926.44;;;27.98;100.00
6090;BME280;3073;42.660;23.316;2022-08-21T10:24:29;93922.72;;;28.02;100.00
6090;BME280;3073;42.660;23.316;2022-08-21T10:27:06;93923.38;;;27.92;100.00
6090;BME280;3073;42.660;23.316;2022-08-21T10:29:47;93918.88;;;28.70;100.00
6090;BME280;3073;42.660;23.316;2022-08-21T10:32:38;93909.25;;;28.41;100.00
6090;BME280;3073;42.660;23.316;2022-08-21T10:35:36;93904.56;;;29.94;96.18
6090;BME280;3073;42.660;23.316;2022-08-21T10:38:42;93906.06;;;30.02;93.09
6090;BME280;3073;42.660;23.316;2022-08-21T10:41:25;93907.59;;;31.31;77.27
6090;BME280;3073;42.660;23.316;2022-08-21T10:44:04;93903.50;;;30.62;78.52
6090;BME280;3073;42.660;23.316;2022-08-21T10:46:42;93908.78;;;30.94;82.35
6090;BME280;3073;42.660;23.316;2022-08-21T10:49:21;93908.00;;;31.26;80.37
6090;BME280;3073;42.660;23.316;2022-08-21T10:51:55;93899.47;;;32.53;73.52
6090;BME280;3073;42.660;23.316;2022-08-21T10:54:29;93889.25;;;32.99;66.21
6090;BME280;3073;42.660;23.316;2022-08-21T10:57:05;93887.81;;;32.47;69.18
6090;BME280;3073;42.660;23.316;2022-08-21T10:59:39;93888.44;;;32.03;70.50
6090;BME280;3073;42.660;23.316;2022-08-21T11:02:15;93883.81;;;32.28;69.05
6090;BME280;3073;42.660;23.316;2022-08-21T11:04:59;93883.38;;;31.64;68.80
6090;BME280;3073;42.660;23.316;2022-08-21T11:07:31;93876.19;;;31.75;72.24
6090;BME280;3073;42.660;23.316;2022-08-21T11:10:03;93876.16;;;31.79;76.13
6090;BME280;3073;42.660;23.316;2022-08-21T11:12:40;93859.03;;;32.11;76.30
6090;BME280;3073;42.660;23.316;2022-08-21T11:15:36;93860.56;;;32.57;69.65
6090;BME280;3073;42.660;23.316;2022-08-21T11:18:15;93862.09;;;32.54;63.97
6090;BME280;3073;42.660;23.316;2022-08-21T11:20:46;93858.03;;;33.28;67.27
6090;BME280;3073;42.660;23.316;2022-08-21T11:23:21;93857.16;;;33.01;68.23
6090;BME280;3073;42.660;23.316;2022-08-21T11:25:52;93865.28;;;32.32;61.94
6090;BME280;3073;42.660;23.316;2022-08-21T11:28:26;93861.91;;;31.66;67.03
6090;BME280;3073;42.660;23.316;2022-08-21T11:31:02;93859.81;;;31.14;69.69
6090;BME280;3073;42.660;23.316;2022-08-21T11:33:51;93851.94;;;30.86;73.99
6090;BME280;3073;42.660;23.316;2022-08-21T11:36:29;93852.31;;;31.02;74.56
6090;BME280;3073;42.660;23.316;2022-08-21T11:39:06;93858.63;;;31.23;75.68
6090;BME280;3073;42.660;23.316;2022-08-21T11:41:42;93849.72;;;30.46;69.67
6090;BME280;3073;42.660;23.316;2022-08-21T11:44:21;93845.97;;;30.47;81.50
6090;BME280;3073;42.660;23.316;2022-08-21T11:46:57;93850.41;;;29.86;80.24
6090;BME280;3073;42.660;23.316;2022-08-21T11:49:46;93855.16;;;29.42;84.29
6090;BME280;3073;42.660;23.316;2022-08-21T11:52:18;93842.50;;;28.96;94.03
6090;BME280;3073;42.660;23.316;2022-08-21T11:54:54;93838.72;;;28.36;94.90
6090;BME280;3073;42.660;23.316;2022-08-21T11:57:38;93845.28;;;28.12;100.00
6090;BME280;3073;42.660;23.316;2022-08-21T12:00:14;93838.97;;;27.17;100.00
6090;BME280;3073;42.660;23.316;2022-08-21T12:02:45;93841.13;;;27.07;100.00
6090;BME280;3073;42.660;23.316;2022-08-21T12:05:25;93837.44;;;27.12;100.00
6090;BME280;3073;42.660;23.316;2022-08-21T12:08:02;93831.84;;;26.61;100.00
6090;BME280;3073;42.660;23.316;2022-08-21T12:10:35;93814.16;;;26.51;100.00
6090;BME280;3073;42.660;23.316;2022-08-21T12:13:07;93817.75;;;26.43;100.00
6090;BME280;3073;42.660;23.316;2022-08-21T12:15:41;93821.50;;;26.42;100.00
6090;BME280;3073;42.660;23.316;2022-08-21T12:18:21;93827.78;;;26.15;100.00
6090;BME280;3073;42.660;23.316;2022-08-21T12:21:01;93827.66;;;26.30;100.00
6090;BME280;3073;42.660;23.316;2022-08-21T12:23:32;93833.34;;;26.36;100.00
6090;BME280;3073;42.660;23.316;2022-08-21T12:26:13;93835.84;;;26.06;100.00
6090;BME280;3073;42.660;23.316;2022-08-21T12:28:45;93840.94;;;25.76;100.00
6090;BME280;3073;42.660;23.316;2022-08-21T12:31:29;93833.31;;;25.48;100.00
6090;BME280;3073;42.660;23.316;2022-08-21T12:33:58;93835.25;;;25.71;100.00
6090;BME280;3073;42.660;23.316;2022-08-21T12:36:38;93830.63;;;25.26;100.00
6090;BME280;3073;42.660;23.316;2022-08-21T12:39:12;93836.00;;;25.33;100.00
6090;BME280;3073;42.660;23.316;2022-08-21T12:41:46;93830.56;;;25.41;100.00
6090;BME280;3073;42.660;23.316;2022-08-21T12:44:16;93829.88;;;25.44;100.00
6090;BME280;3073;42.660;23.316;2022-08-21T12:46:48;93829.34;;;25.54;100.00
6090;BME280;3073;42.660;23.316;2022-08-21T12:49:21;93821.75;;;25.69;100.00
6090;BME280;3073;42.660;23.316;2022-08-21T12:51:55;93817.53;;;25.83;100.00
6090;BME280;3073;42.660;23.316;2022-08-21T12:54:28;93823.97;;;25.89;100.00
6090;BME280;3073;42.660;23.316;2022-08-21T12:56:57;93826.69;;;25.74;100.00
6090;BME280;3073;42.660;23.316;2022-08-21T12:59:24;93822.34;;;25.58;100.00
6090;BME280;3073;42.660;23.316;2022-08-21T13:01:54;93822.34;;;25.58;100.00
6090;BME280;3073;42.660;23.316;2022-08-21T13:04:33;93813.88;;;25.65;100.00
6090;BME280;3073;42.660;23.316;2022-08-21T13:07:06;93814.97;;;25.64;100.00
6090;BME280;3073;42.660;23.316;2022-08-21T13:09:41;93808.34;;;25.70;100.00
6090;BME280;3073;42.660;23.316;2022-08-21T13:12:11;93816.28;;;25.54;100.00
6090;BME280;3073;42.660;23.316;2022-08-21T13:14:39;93819.63;;;25.36;100.00
6090;BME280;3073;42.660;23.316;2022-08-21T13:17:10;93820.63;;;25.28;100.00
6090;BME280;3073;42.660;23.316;2022-08-21T13:19:38;93812.63;;;25.40;100.00
6090;BME280;3073;42.660;23.316;2022-08-21T13:22:12;93809.47;;;25.50;100.00